sensor_id;sensor_type;location;lat;lon;timestamp;P1;durP1;ratioP1;P2;durP2;ratioP2
43226;SDS011;28839;52.404;9.808;2023-04-24T00:03:06;1.45;;;1.23;;
43226;SDS011;28839;52.404;9.808;2023-04-24T00:10:00;2.37;;;1.00;;
43226;SDS011;28839;52.404;9.808;2023-04-24T00:16:56;2.73;;;1.10;;
43226;SDS011;28839;52.404;9.808;2023-04-24T00:23:50;3.05;;;1.15;;
43226;SDS011;28839;52.404;9.808;2023-04-24T00:30:44;2.63;;;1.63;;
43226;SDS011;28839;52.404;9.808;2023-04-24T00:37:39;1.80;;;1.00;;
43226;SDS011;28839;52.404;9.808;2023-04-24T00:44:33;2.55;;;1.33;;
43226;SDS011;28839;52.404;9.808;2023-04-24T00:51:27;2.30;;;1.05;;
43226;SDS011;28839;52.404;9.808;2023-04-24T00:58:24;1.85;;;1.00;;
43226;SDS011;28839;52.404;9.808;2023-04-24T01:05:18;1.23;;;1.00;;
43226;SDS011;28839;52.404;9.808;2023-04-24T01:12:12;1.73;;;0.97;;
43226;SDS011;28839;52.404;9.808;2023-04-24T01:19:07;1.02;;;0.93;;
43226;SDS011;28839;52.404;9.808;2023-04-24T01:26:05;1.15;;;1.05;;
43226;SDS011;28839;52.404;9.808;2023-04-24T01:32:59;1.20;;;1.10;;
43226;SDS011;28839;52.404;9.808;2023-04-24T01:39:53;1.98;;;0.95;;
43226;SDS011;28839;52.404;9.808;2023-04-24T01:46:48;1.10;;;1.10;;
43226;SDS011;28839;52.404;9.808;2023-04-24T01:53:42;1.10;;;1.00;;
43226;SDS011;28839;52.404;9.808;2023-04-24T02:00:36;1.50;;;0.90;;
43226;SDS011;28839;52.404;9.808;2023-04-24T02:07:31;1.95;;;0.98;;
43226;SDS011;28839;52.404;9.808;2023-04-24T02:14:25;1.45;;;0.95;;
43226;SDS011;28839;52.404;9.808;2023-04-24T02:21:19;1.67;;;1.00;;
43226;SDS011;28839;52.404;9.808;2023-04-24T02:28:14;1.70;;;1.10;;
43226;SDS011;28839;52.404;9.808;2023-04-24T02:35:08;2.22;;;1.20;;
43226;SDS011;28839;52.404;9.808;2023-04-24T02:42:02;1.20;;;1.10;;
43226;SDS011;28839;52.404;9.808;2023-04-24T02:48:58;2.77;;;1.20;;
43226;SDS011;28839;52.404;9.808;2023-04-24T02:55:51;1.55;;;1.20;;
43226;SDS011;28839;52.404;9.808;2023-04-24T03:02:45;1.52;;;1.37;;
43226;SDS011;28839;52.404;9.808;2023-04-24T03:09:41;2.70;;;1.30;;
43226;SDS011;28839;52.404;9.808;2023-04-24T03:16:35;2.37;;;1.08;;
43226;SDS011;28839;52.404;9.808;2023-04-24T03:23:29;1.62;;;1.00;;
43226;SDS011;28839;52.404;9.808;2023-04-24T03:30:24;2.37;;;1.05;;
43226;SDS011;28839;52.404;9.808;2023-04-24T03:37:18;0.80;;;0.80;;
43226;SDS011;28839;52.404;9.808;2023-04-24T03:44:11;1.20;;;0.90;;
43226;SDS011;28839;52.404;9.808;2023-04-24T03:51:07;2.95;;;1.00;;
43226;SDS011;28839;52.404;9.808;2023-04-24T03:58:00;1.10;;;0.90;;
43226;SDS011;28839;52.404;9.808;2023-04-24T04:04:54;1.00;;;0.73;;
43226;SDS011;28839;52.404;9.808;2023-04-24T04:11:49;1.98;;;1.20;;
43226;SDS011;28839;52.404;9.808;2023-04-24T04:18:43;3.20;;;1.00;;
43226;SDS011;28839;52.404;9.808;2023-04-24T04:25:38;1.93;;;1.10;;
43226;SDS011;28839;52.404;9.808;2023-04-24T04:32:33;2.70;;;1.20;;
43226;SDS011;28839;52.404;9.808;2023-04-24T04:39:27;1.10;;;1.00;;
43226;SDS011;28839;52.404;9.808;2023-04-24T04:46:21;1.70;;;1.12;;
43226;SDS011;28839;52.404;9.808;2023-04-24T04:53:19;1.67;;;1.20;;
43226;SDS011;28839;52.404;9.808;2023-04-24T05:00:13;5.15;;;1.80;;
43226;SDS011;28839;52.404;9.808;2023-04-24T05:07:07;0.85;;;0.85;;
43226;SDS011;28839;52.404;9.808;2023-04-24T05:14:02;1.92;;;1.00;;
43226;SDS011;28839;52.404;9.808;2023-04-24T05:20:57;2.45;;;1.33;;
43226;SDS011;28839;52.404;9.808;2023-04-24T05:27:50;1.30;;;1.20;;
43226;SDS011;28839;52.404;9.808;2023-04-24T05:34:46;1.40;;;0.82;;
43226;SDS011;28839;52.404;9.808;2023-04-24T05:41:40;2.25;;;0.93;;
43226;SDS011;28839;52.404;9.808;2023-04-24T05:48:34;1.90;;;1.00;;
43226;SDS011;28839;52.404;9.808;2023-04-24T05:55:29;1.33;;;1.15;;
43226;SDS011;28839;52.404;9.808;2023-04-24T06:02:24;1.73;;;1.50;;
43226;SDS011;28839;52.404;9.808;2023-04-24T06:09:20;1.93;;;1.30;;
43226;SDS011;28839;52.404;9.808;2023-04-24T06:16:17;1.30;;;1.20;;
43226;SDS011;28839;52.404;9.808;2023-04-24T06:23:11;2.80;;;1.10;;
43226;SDS011;28839;52.404;9.808;2023-04-24T06:30:05;2.53;;;1.17;;
43226;SDS011;28839;52.404;9.808;2023-04-24T06:37:01;1.92;;;1.48;;
43226;SDS011;28839;52.404;9.808;2023-04-24T06:43:55;2.33;;;1.50;;
43226;SDS011;28839;52.404;9.808;2023-04-24T06:50:49;2.42;;;1.67;;
43226;SDS011;28839;52.404;9.808;2023-04-24T06:57:44;3.65;;;2.80;;
43226;SDS011;28839;52.404;9.808;2023-04-24T07:04:38;3.45;;;2.95;;
43226;SDS011;28839;52.404;9.808;2023-04-24T07:11:32;5.03;;;3.70;;
43226;SDS011;28839;52.404;9.808;2023-04-24T07:18:27;4.65;;;3.67;;
43226;SDS011;28839;52.404;9.808;2023-04-24T07:25:21;5.62;;;3.83;;
43226;SDS011;28839;52.404;9.808;2023-04-24T07:32:15;4.63;;;4.23;;
43226;SDS011;28839;52.404;9.808;2023-04-24T07:39:10;5.72;;;4.45;;
43226;SDS011;28839;52.404;9.808;2023-04-24T07:46:05;5.40;;;4.47;;
43226;SDS011;28839;52.404;9.808;2023-04-24T07:53:01;5.32;;;4.05;;
43226;SDS011;28839;52.404;9.808;2023-04-24T07:59:57;7.20;;;5.27;;
43226;SDS011;28839;52.404;9.808;2023-04-24T08:06:50;8.02;;;5.82;;
43226;SDS011;28839;52.404;9.808;2023-04-24T08:13:44;6.63;;;5.83;;
43226;SDS011;28839;52.404;9.808;2023-04-24T08:20:40;7.20;;;6.30;;
43226;SDS011;28839;52.404;9.808;2023-04-24T08:27:34;9.10;;;6.40;;
43226;SDS011;28839;52.404;9.808;2023-04-24T08:34:28;7.15;;;6.00;;
43226;SDS011;28839;52.404;9.808;2023-04-24T08:41:24;9.80;;;7.07;;
43226;SDS011;28839;52.404;9.808;2023-04-24T08:48:18;8.07;;;4.12;;
43226;SDS011;28839;52.404;9.808;2023-04-24T09:02:10;5.97;;;4.75;;
43226;SDS011;28839;52.404;9.808;2023-04-24T09:09:05;5.93;;;4.00;;
43226;SDS011;28839;52.404;9.808;2023-04-24T09:16:00;3.00;;;2.70;;
43226;SDS011;28839;52.404;9.808;2023-04-24T09:22:56;4.47;;;3.10;;
43226;SDS011;28839;52.404;9.808;2023-04-24T09:29:53;2.65;;;2.45;;
43226;SDS011;28839;52.404;9.808;2023-04-24T09:36:47;2.70;;;2.40;;
43226;SDS011;28839;52.404;9.808;2023-04-24T09:43:43;2.97;;;2.67;;
43226;SDS011;28839;52.404;9.808;2023-04-24T09:50:37;4.35;;;3.42;;
43226;SDS011;28839;52.404;9.808;2023-04-24T09:57:31;5.80;;;3.50;;
43226;SDS011;28839;52.404;9.808;2023-04-24T10:04:27;3.50;;;3.20;;
43226;SDS011;28839;52.404;9.808;2023-04-24T10:11:21;6.20;;;3.67;;
43226;SDS011;28839;52.404;9.808;2023-04-24T10:18:16;3.40;;;3.10;;
43226;SDS011;28839;52.404;9.808;2023-04-24T10:25:12;3.20;;;3.00;;
43226;SDS011;28839;52.404;9.808;2023-04-24T10:32:07;3.03;;;2.33;;
43226;SDS011;28839;52.404;9.808;2023-04-24T10:39:04;4.07;;;3.08;;
43226;SDS011;28839;52.404;9.808;2023-04-24T10:46:04;4.00;;;3.10;;
43226;SDS011;28839;52.404;9.808;2023-04-24T10:53:05;3.22;;;2.55;;
43226;SDS011;28839;52.404;9.808;2023-04-24T11:00:16;2.40;;;2.10;;
43226;SDS011;28839;52.404;9.808;2023-04-24T11:07:14;4.32;;;2.65;;
43226;SDS011;28839;52.404;9.808;2023-04-24T11:14:08;5.12;;;2.47;;
43226;SDS011;28839;52.404;9.808;2023-04-24T11:21:09;2.30;;;1.70;;
43226;SDS011;28839;52.404;9.808;2023-04-24T11:28:05;2.28;;;2.03;;
43226;SDS011;28839;52.404;9.808;2023-04-24T11:35:00;2.70;;;2.20;;
43226;SDS011;28839;52.404;9.808;2023-04-24T11:42:01;1.77;;;1.37;;
43226;SDS011;28839;52.404;9.808;2023-04-24T11:48:57;1.85;;;1.50;;
43226;SDS011;28839;52.404;9.808;2023-04-24T11:55:52;1.77;;;1.40;;
43226;SDS011;28839;52.404;9.808;2023-04-24T12:02:45;1.70;;;1.20;;
43226;SDS011;28839;52.404;9.808;2023-04-24T12:09:41;1.67;;;1.30;;
43226;SDS011;28839;52.404;9.808;2023-04-24T12:16:37;1.55;;;1.02;;
43226;SDS011;28839;52.404;9.808;2023-04-24T12:23:34;2.37;;;0.80;;
43226;SDS011;28839;52.404;9.808;2023-04-24T12:30:30;3.90;;;0.90;;
43226;SDS011;28839;52.404;9.808;2023-04-24T12:37:25;1.50;;;0.90;;
43226;SDS011;28839;52.404;9.808;2023-04-24T12:44:20;3.40;;;1.05;;
43226;SDS011;28839;52.404;9.808;2023-04-24T12:51:15;1.30;;;1.20;;
43226;SDS011;28839;52.404;9.808;2023-04-24T12:58:09;2.33;;;1.15;;
43226;SDS011;28839;52.404;9.808;2023-04-24T13:05:03;3.10;;;1.45;;
43226;SDS011;28839;52.404;9.808;2023-04-24T13:11:58;4.05;;;1.27;;
43226;SDS011;28839;52.404;9.808;2023-04-24T13:18:53;2.65;;;2.45;;
43226;SDS011;28839;52.404;9.808;2023-04-24T13:25:46;1.65;;;1.52;;
43226;SDS011;28839;52.404;9.808;2023-04-24T13:32:42;1.95;;;1.50;;
43226;SDS011;28839;52.404;9.808;2023-04-24T13:39:36;1.77;;;1.65;;
43226;SDS011;28839;52.404;9.808;2023-04-24T13:46:30;1.70;;;1.60;;
43226;SDS011;28839;52.404;9.808;2023-04-24T13:53:25;4.30;;;1.27;;
43226;SDS011;28839;52.404;9.808;2023-04-24T14:00:19;1.55;;;0.95;;
43226;SDS011;28839;52.404;9.808;2023-04-24T14:07:13;0.60;;;0.60;;
43226;SDS011;28839;52.404;9.808;2023-04-24T14:14:08;0.73;;;0.50;;
43226;SDS011;28839;52.404;9.808;2023-04-24T14:21:03;1.05;;;0.85;;
43226;SDS011;28839;52.404;9.808;2023-04-24T14:27:57;3.85;;;1.30;;
43226;SDS011;28839;52.404;9.808;2023-04-24T14:34:52;2.58;;;1.30;;
43226;SDS011;28839;52.404;9.808;2023-04-24T14:41:46;3.22;;;1.70;;
43226;SDS011;28839;52.404;9.808;2023-04-24T14:48:40;3.45;;;2.30;;
43226;SDS011;28839;52.404;9.808;2023-04-24T14:55:35;4.10;;;2.37;;
43226;SDS011;28839;52.404;9.808;2023-04-24T15:02:29;4.43;;;3.15;;
43226;SDS011;28839;52.404;9.808;2023-04-24T15:09:23;4.82;;;3.15;;
43226;SDS011;28839;52.404;9.808;2023-04-24T15:16:22;7.00;;;3.53;;
43226;SDS011;28839;52.404;9.808;2023-04-24T15:23:20;5.20;;;3.58;;
43226;SDS011;28839;52.404;9.808;2023-04-24T15:30:17;6.18;;;3.47;;
43226;SDS011;28839;52.404;9.808;2023-04-24T15:37:12;8.73;;;3.58;;
43226;SDS011;28839;52.404;9.808;2023-04-24T15:44:06;9.25;;;3.92;;
43226;SDS011;28839;52.404;9.808;2023-04-24T15:51:00;7.35;;;3.97;;
43226;SDS011;28839;52.404;9.808;2023-04-24T15:57:55;9.70;;;4.75;;
43226;SDS011;28839;52.404;9.808;2023-04-24T16:04:49;9.15;;;3.87;;
43226;SDS011;28839;52.404;9.808;2023-04-24T16:11:44;9.75;;;4.60;;
43226;SDS011;28839;52.404;9.808;2023-04-24T16:18:39;8.63;;;5.12;;
43226;SDS011;28839;52.404;9.808;2023-04-24T16:25:33;14.77;;;5.93;;
43226;SDS011;28839;52.404;9.808;2023-04-24T16:32:26;7.87;;;4.60;;
43226;SDS011;28839;52.404;9.808;2023-04-24T16:39:22;11.93;;;5.43;;
43226;SDS011;28839;52.404;9.808;2023-04-24T16:46:17;7.78;;;4.40;;
43226;SDS011;28839;52.404;9.808;2023-04-24T16:53:11;9.65;;;5.25;;
43226;SDS011;28839;52.404;9.808;2023-04-24T17:00:07;12.10;;;5.93;;
43226;SDS011;28839;52.404;9.808;2023-04-24T17:07:02;9.13;;;5.60;;
43226;SDS011;28839;52.404;9.808;2023-04-24T17:13:56;4.55;;;3.22;;
43226;SDS011;28839;52.404;9.808;2023-04-24T17:20:52;6.68;;;3.00;;
43226;SDS011;28839;52.404;9.808;2023-04-24T17:27:46;3.47;;;3.17;;
43226;SDS011;28839;52.404;9.808;2023-04-24T17:34:40;6.57;;;3.15;;
43226;SDS011;28839;52.404;9.808;2023-04-24T17:41:35;5.82;;;2.12;;
43226;SDS011;28839;52.404;9.808;2023-04-24T17:48:29;5.93;;;3.53;;
43226;SDS011;28839;52.404;9.808;2023-04-24T17:55:23;5.37;;;3.08;;
43226;SDS011;28839;52.404;9.808;2023-04-24T18:02:18;6.03;;;3.55;;
43226;SDS011;28839;52.404;9.808;2023-04-24T18:09:12;6.78;;;3.83;;
43226;SDS011;28839;52.404;9.808;2023-04-24T18:16:06;5.90;;;4.05;;
43226;SDS011;28839;52.404;9.808;2023-04-24T18:23:01;25.48;;;13.45;;
43226;SDS011;28839;52.404;9.808;2023-04-24T18:29:56;13.38;;;6.32;;
43226;SDS011;28839;52.404;9.808;2023-04-24T18:36:51;14.25;;;9.30;;
43226;SDS011;28839;52.404;9.808;2023-04-24T18:43:46;4.10;;;3.30;;
43226;SDS011;28839;52.404;9.808;2023-04-24T18:50:42;4.95;;;3.00;;
43226;SDS011;28839;52.404;9.808;2023-04-24T18:57:36;7.50;;;3.60;;
43226;SDS011;28839;52.404;9.808;2023-04-24T19:04:32;4.10;;;2.33;;
43226;SDS011;28839;52.404;9.808;2023-04-24T19:11:25;4.97;;;2.15;;
43226;SDS011;28839;52.404;9.808;2023-04-24T19:18:19;6.13;;;3.40;;
43226;SDS011;28839;52.404;9.808;2023-04-24T19:25:15;8.65;;;3.10;;
43226;SDS011;28839;52.404;9.808;2023-04-24T19:32:09;7.03;;;2.87;;
43226;SDS011;28839;52.404;9.808;2023-04-24T19:39:02;4.85;;;3.00;;
43226;SDS011;28839;52.404;9.808;2023-04-24T19:45:58;5.63;;;3.00;;
43226;SDS011;28839;52.404;9.808;2023-04-24T19:52:51;5.30;;;2.35;;
43226;SDS011;28839;52.404;9.808;2023-04-24T19:59:46;6.60;;;2.87;;
43226;SDS011;28839;52.404;9.808;2023-04-24T20:06:41;10.38;;;3.58;;
43226;SDS011;28839;52.404;9.808;2023-04-24T20:13:34;4.90;;;3.50;;
43226;SDS011;28839;52.404;9.808;2023-04-24T20:20:28;7.50;;;3.55;;
43226;SDS011;28839;52.404;9.808;2023-04-24T20:27:23;8.05;;;3.45;;
43226;SDS011;28839;52.404;9.808;2023-04-24T20:34:17;11.75;;;3.83;;
43226;SDS011;28839;52.404;9.808;2023-04-24T20:41:11;13.50;;;4.65;;
43226;SDS011;28839;52.404;9.808;2023-04-24T20:48:08;10.82;;;3.83;;
43226;SDS011;28839;52.404;9.808;2023-04-24T20:55:02;10.15;;;3.90;;
43226;SDS011;28839;52.404;9.808;2023-04-24T21:01:56;11.25;;;4.25;;
43226;SDS011;28839;52.404;9.808;2023-04-24T21:08:51;8.35;;;3.70;;
43226;SDS011;28839;52.404;9.808;2023-04-24T21:15:47;10.13;;;3.92;;
43226;SDS011;28839;52.404;9.808;2023-04-24T21:22:41;10.65;;;4.35;;
43226;SDS011;28839;52.404;9.808;2023-04-24T21:29:36;13.93;;;4.10;;
43226;SDS011;28839;52.404;9.808;2023-04-24T21:36:30;8.23;;;3.47;;
43226;SDS011;28839;52.404;9.808;2023-04-24T21:43:24;10.17;;;3.97;;
43226;SDS011;28839;52.404;9.808;2023-04-24T21:50:20;10.25;;;4.32;;
43226;SDS011;28839;52.404;9.808;2023-04-24T21:57:13;12.57;;;4.22;;
43226;SDS011;28839;52.404;9.808;2023-04-24T22:04:08;9.23;;;3.70;;
43226;SDS011;28839;52.404;9.808;2023-04-24T22:11:03;10.73;;;4.05;;
43226;SDS011;28839;52.404;9.808;2023-04-24T22:17:57;10.10;;;3.50;;
43226;SDS011;28839;52.404;9.808;2023-04-24T22:24:52;12.25;;;4.75;;
43226;SDS011;28839;52.404;9.808;2023-04-24T22:31:48;9.90;;;4.22;;
43226;SDS011;28839;52.404;9.808;2023-04-24T22:38:41;8.45;;;3.72;;
43226;SDS011;28839;52.404;9.808;2023-04-24T22:45:36;12.98;;;4.68;;
43226;SDS011;28839;52.404;9.808;2023-04-24T22:52:31;12.50;;;4.07;;
43226;SDS011;28839;52.404;9.808;2023-04-24T22:59:26;12.10;;;4.55;;
43226;SDS011;28839;52.404;9.808;2023-04-24T23:06:23;11.95;;;4.50;;
43226;SDS011;28839;52.404;9.808;2023-04-24T23:13:18;12.65;;;4.80;;
43226;SDS011;28839;52.404;9.808;2023-04-24T23:20:12;14.65;;;4.35;;
43226;SDS011;28839;52.404;9.808;2023-04-24T23:27:07;15.75;;;4.80;;
43226;SDS011;28839;52.404;9.808;2023-04-24T23:34:02;15.93;;;5.15;;
43226;SDS011;28839;52.404;9.808;2023-04-24T23:40:56;16.37;;;6.75;;
43226;SDS011;28839;52.404;9.808;2023-04-24T23:47:49;15.38;;;5.97;;
43226;SDS011;28839;52.404;9.808;2023-04-24T23:54:45;14.82;;;5.80;;
